Time;durP1;ratioP1;P1;durP2;ratioP2;P2;SDS_P1;SDS_P2;PMS_P1;PMS_P2;Temp;Humidity;BMP_temperature;BMP_pressure;BME280_temperature;BME280_humidity;BME280_pressure;Samples;Min_cycle;Max_cycle;Signal;HPM_P1;HPM_P2
2022/08/26 00:01:33;;;;;;;53.47;39.50;;;;;;;22.19;77.40;101072.00;5022656;28;20310;-79
2022/08/26 00:04:00;;;;;;;45.20;34.00;;;;;;;22.13;77.84;101073.72;5033453;28;20033;-80
2022/08/26 00:06:25;;;;;;;44.83;33.75;;;;;;;22.10;78.12;101076.84;5045753;28;20047;-81
2022/08/26 00:08:51;;;;;;;55.08;42.38;;;;;;;22.20;78.00;101078.91;5044282;28;20021;-81
2022/08/26 00:11:17;;;;;;;52.85;41.42;;;;;;;22.17;78.09;101088.91;5028503;28;20041;-79
2022/08/26 00:13:42;;;;;;;60.63;41.03;;;;;;;22.19;78.15;101091.31;5035742;28;20068;-78
2022/08/26 00:16:09;;;;;;;52.95;38.83;;;;;;;22.16;78.48;101091.75;5045155;28;20033;-80
2022/08/26 00:18:36;;;;;;;47.75;35.65;;;;;;;22.02;79.04;101083.25;5022781;28;20108;-79
2022/08/26 00:21:02;;;;;;;58.05;41.10;;;;;;;22.05;79.32;101084.63;5032214;28;20044;-79
2022/08/26 00:23:27;;;;;;;47.38;35.83;;;;;;;21.97;79.71;101091.03;5046453;28;20049;-78
2022/08/26 00:25:53;;;;;;;52.00;37.47;;;;;;;22.01;79.59;101092.19;5027798;28;20029;-77
2022/08/26 00:28:19;;;;;;;53.17;39.80;;;;;;;22.03;79.78;101092.75;5048353;28;20650;-81
2022/08/26 00:30:48;;;;;;;63.20;42.17;;;;;;;22.11;79.44;101099.53;5033429;28;20033;-79
2022/08/26 00:33:18;;;;;;;50.13;36.95;;;;;;;21.94;80.09;101102.84;5025086;28;20043;-79
2022/08/26 00:35:46;;;;;;;47.60;37.00;;;;;;;21.94;80.15;101116.03;5040655;28;20034;-81
2022/08/26 00:38:12;;;;;;;51.72;39.92;;;;;;;21.98;80.38;101116.38;5042582;28;20033;-80
2022/08/26 00:40:44;;;;;;;52.85;39.03;;;;;;;21.88;80.81;101113.47;5038571;28;20588;-79
2022/08/26 00:43:10;;;;;;;49.83;37.58;;;;;;;21.80;81.19;101125.16;5022344;28;20025;-79
2022/08/26 00:45:47;;;;;;;51.47;36.78;;;;;;;21.78;81.51;101124.56;5043239;28;20020;-77
2022/08/26 00:48:17;;;;;;;46.55;34.78;;;;;;;21.90;81.15;101122.78;5025326;28;20105;-80
2022/08/26 00:50:49;;;;;;;48.83;34.45;;;;;;;21.88;81.07;101110.84;5029356;28;20033;-80
2022/08/26 00:53:22;;;;;;;52.50;38.13;;;;;;;21.88;81.14;101109.00;5026914;28;20044;-79
2022/08/26 00:55:53;;;;;;;53.83;40.78;;;;;;;21.83;81.48;101115.97;5038252;28;20401;-80
2022/08/26 00:58:19;;;;;;;49.88;35.15;;;;;;;21.81;82.00;101110.91;5037385;28;20064;-79
2022/08/26 01:00:45;;;;;;;52.63;38.55;;;;;;;21.76;82.08;101121.34;5040904;28;20103;-79
2022/08/26 01:03:11;;;;;;;47.13;34.13;;;;;;;21.78;81.99;101120.09;5039188;28;20082;-79
2022/08/26 01:05:41;;;;;;;46.28;33.42;;;;;;;21.64;82.94;101121.28;5020380;28;20037;-79
2022/08/26 01:08:06;;;;;;;54.97;39.55;;;;;;;21.62;83.05;101125.16;5038677;28;20041;-80
2022/08/26 01:10:32;;;;;;;52.13;34.42;;;;;;;21.62;83.12;101133.09;5020751;28;20039;-78
2022/08/26 01:13:02;;;;;;;64.55;39.70;;;;;;;21.52;83.70;101123.06;5019886;28;20100;-78
2022/08/26 01:15:41;;;;;;;49.08;35.40;;;;;;;21.60;83.24;101121.94;5024618;28;20026;-79
2022/08/26 01:18:07;;;;;;;47.35;34.67;;;;;;;21.57;83.31;101124.00;5042557;28;20040;-80
2022/08/26 01:20:37;;;;;;;50.90;33.72;;;;;;;21.53;83.80;101128.13;5023115;28;20026;-78
2022/08/26 01:23:06;;;;;;;41.72;32.55;;;;;;;21.53;83.77;101129.94;5048623;28;20126;-80
2022/08/26 01:25:35;;;;;;;42.40;32.80;;;;;;;21.54;83.95;101121.81;5045766;28;20041;-80
2022/08/26 01:28:05;;;;;;;40.28;31.15;;;;;;;21.52;84.14;101125.69;5041436;28;20038;-78
2022/08/26 01:30:32;;;;;;;47.08;33.25;;;;;;;21.51;84.11;101131.97;5027645;28;20378;-79
2022/08/26 01:33:01;;;;;;;46.38;32.60;;;;;;;21.35;84.91;101130.72;5019584;28;20098;-79
2022/08/26 01:35:28;;;;;;;43.67;33.38;;;;;;;21.46;84.68;101134.50;5023177;28;20087;-79
2022/08/26 01:37:54;;;;;;;59.25;35.38;;;;;;;21.39;85.13;101137.16;5026247;28;20071;-80
2022/08/26 01:40:24;;;;;;;38.58;30.13;;;;;;;21.27;85.56;101137.09;5039082;28;20675;-78
2022/08/26 01:42:52;;;;;;;43.45;30.98;;;;;;;21.24;86.03;101144.63;5039729;28;20053;-77
2022/08/26 01:45:24;;;;;;;38.50;30.38;;;;;;;21.21;86.29;101145.88;5042784;28;20566;-79
2022/08/26 01:47:52;;;;;;;47.08;31.33;;;;;;;21.23;86.44;101151.75;5039223;28;20029;-79
2022/08/26 01:50:24;;;;;;;45.35;30.40;;;;;;;21.11;87.05;101156.09;5033846;28;20285;-78
2022/08/26 01:52:51;;;;;;;44.10;29.98;;;;;;;21.08;87.60;101162.63;5035570;28;20041;-78
2022/08/26 01:55:19;;;;;;;42.97;29.70;;;;;;;21.13;87.16;101160.13;5033032;28;20034;-79
2022/08/26 01:57:48;;;;;;;37.58;29.23;;;;;;;21.03;87.98;101159.84;5035176;28;20149;-78
2022/08/26 02:00:14;;;;;;;40.50;27.10;;;;;;;20.93;88.53;101157.69;5032941;28;20059;-78
2022/08/26 02:02:42;;;;;;;38.10;26.88;;;;;;;20.97;88.52;101164.13;5036718;28;20055;-77
2022/08/26 02:05:13;;;;;;;39.40;28.05;;;;;;;21.07;88.69;101160.22;5028739;28;20045;-79
2022/08/26 02:07:40;;;;;;;39.58;27.33;;;;;;;21.10;88.90;101155.31;5037791;28;20028;-79
2022/08/26 02:10:07;;;;;;;34.95;26.23;;;;;;;21.00;89.15;101152.34;5022911;28;20040;-77
2022/08/26 02:12:33;;;;;;;38.30;27.35;;;;;;;20.98;89.54;101162.31;5016364;28;20057;-79
2022/08/26 02:15:02;;;;;;;38.30;25.15;;;;;;;21.00;89.59;101158.44;5031513;28;20473;-79
2022/08/26 02:17:34;;;;;;;38.47;26.95;;;;;;;21.12;89.05;101157.72;5022541;28;20489;-77
2022/08/26 02:19:59;;;;;;;44.72;27.80;;;;;;;21.06;89.43;101158.59;5035196;28;20030;-78
2022/08/26 02:22:25;;;;;;;35.22;24.80;;;;;;;20.97;89.91;101161.50;5040796;28;20513;-78
2022/08/26 02:24:51;;;;;;;37.22;24.60;;;;;;;20.98;90.40;101163.13;5035997;28;20500;-77
2022/08/26 02:27:20;;;;;;;35.70;23.58;;;;;;;20.95;90.22;101168.81;5016173;28;20043;-78
2022/08/26 02:29:51;;;;;;;33.13;23.58;;;;;;;20.93;90.58;101173.50;5022891;28;20098;-78
2022/08/26 02:32:16;;;;;;;37.65;25.75;;;;;;;20.92;90.74;101174.50;5039022;28;20092;-78
2022/08/26 02:34:43;;;;;;;34.75;24.17;;;;;;;20.99;90.26;101174.47;5026352;28;20072;-78
2022/08/26 02:37:09;;;;;;;41.08;24.30;;;;;;;21.04;90.05;101174.63;5016351;28;20049;-78
2022/08/26 02:39:37;;;;;;;46.00;23.08;;;;;;;21.00;90.22;101186.63;5040423;28;20097;-78
2022/08/26 02:42:04;;;;;;;34.30;22.98;;;;;;;20.94;90.46;101185.66;5035433;28;20100;-78
2022/08/26 02:44:31;;;;;;;33.88;23.23;;;;;;;21.01;90.45;101188.25;5042612;28;20469;-78
2022/08/26 02:46:57;;;;;;;40.05;23.17;;;;;;;21.01;90.25;101180.34;5017365;28;20033;-78
2022/08/26 02:49:24;;;;;;;29.73;20.02;;;;;;;20.97;90.33;101187.06;5039458;28;20091;-77
2022/08/26 02:51:50;;;;;;;33.30;20.60;;;;;;;20.93;90.27;101176.16;5043739;28;20033;-77
2022/08/26 02:54:18;;;;;;;36.08;21.55;;;;;;;20.96;90.29;101175.72;5048884;28;20542;-77
2022/08/26 02:56:44;;;;;;;40.45;23.25;;;;;;;20.92;90.02;101178.97;5034544;28;20595;-78
2022/08/26 02:59:13;;;;;;;32.17;20.88;;;;;;;20.94;90.21;101184.84;5035713;28;20147;-78
2022/08/26 03:01:39;;;;;;;35.40;20.70;;;;;;;21.01;89.71;101177.69;5024867;28;20039;-78
2022/08/26 03:04:10;;;;;;;29.52;18.33;;;;;;;21.04;89.72;101179.91;5038497;28;20029;-78
2022/08/26 03:06:36;;;;;;;31.95;20.08;;;;;;;21.09;89.30;101187.16;5040103;28;20060;-78
2022/08/26 03:09:03;;;;;;;30.17;19.88;;;;;;;21.10;88.99;101186.16;5038495;28;20144;-80
2022/08/26 03:11:29;;;;;;;29.08;17.77;;;;;;;21.04;89.35;101176.44;5037728;28;20052;-78
2022/08/26 03:13:55;;;;;;;29.27;17.42;;;;;;;21.00;89.42;101174.25;5033362;28;20037;-78
2022/08/26 03:16:20;;;;;;;29.40;18.67;;;;;;;21.00;89.51;101183.97;5036816;28;20101;-80
2022/08/26 03:18:46;;;;;;;22.30;15.55;;;;;;;21.01;89.52;101180.34;5014587;28;20029;-78
2022/08/26 03:21:15;;;;;;;30.63;17.02;;;;;;;20.98;89.43;101181.59;5030713;23;20996;-75
2022/08/26 03:23:42;;;;;;;23.80;16.13;;;;;;;21.09;89.36;101182.69;5028655;28;20351;-75
2022/08/26 03:26:09;;;;;;;30.38;16.27;;;;;;;21.06;88.77;101182.31;5021598;28;20111;-75
2022/08/26 03:28:35;;;;;;;22.33;13.93;;;;;;;21.02;89.44;101183.75;5040267;28;20479;-75
2022/08/26 03:31:01;;;;;;;28.63;16.83;;;;;;;21.11;88.86;101187.75;5020341;28;20033;-75
2022/08/26 03:33:27;;;;;;;23.10;15.77;;;;;;;21.09;89.01;101179.25;5023430;28;20115;-74
2022/08/26 03:35:54;;;;;;;27.65;14.75;;;;;;;21.10;88.61;101186.16;5023096;28;20033;-73
2022/08/26 03:38:23;;;;;;;23.48;13.43;;;;;;;21.03;89.05;101183.56;5023770;28;20361;-74
2022/08/26 03:40:49;;;;;;;21.17;15.20;;;;;;;21.05;88.58;101192.06;5021821;28;20057;-74
2022/08/26 03:43:16;;;;;;;21.48;13.57;;;;;;;21.04;88.86;101187.00;5022242;28;20150;-74
2022/08/26 03:45:41;;;;;;;22.42;14.27;;;;;;;21.10;88.07;101181.69;5023845;28;20033;-74
2022/08/26 03:48:07;;;;;;;24.55;14.43;;;;;;;21.05;88.66;101185.97;5022167;28;20442;-73
2022/08/26 03:50:34;;;;;;;18.05;11.48;;;;;;;20.97;89.00;101184.44;5036922;28;20030;-74
2022/08/26 03:53:00;;;;;;;25.65;13.55;;;;;;;21.01;89.21;101185.59;5022101;28;20794;-74
2022/08/26 03:55:30;;;;;;;20.88;11.85;;;;;;;21.11;88.41;101183.28;5024256;28;20428;-74
2022/08/26 03:57:57;;;;;;;17.40;12.05;;;;;;;21.08;88.07;101183.72;5011457;28;20282;-74
2022/08/26 04:00:22;;;;;;;17.92;10.98;;;;;;;21.03;88.33;101188.03;5035483;28;20513;-74
2022/08/26 04:02:51;;;;;;;17.90;10.85;;;;;;;21.03;88.34;101188.81;5021951;28;20029;-74
2022/08/26 04:05:19;;;;;;;21.05;11.45;;;;;;;21.08;88.10;101193.44;5023475;28;20277;-74
2022/08/26 04:07:46;;;;;;;18.23;11.90;;;;;;;21.12;87.76;101192.81;5038778;28;20459;-74
2022/08/26 04:10:14;;;;;;;20.52;9.73;;;;;;;20.99;88.59;101192.91;5017474;28;20062;-74
2022/08/26 04:12:40;;;;;;;18.58;10.70;;;;;;;21.05;87.76;101189.41;5024463;28;20038;-74
2022/08/26 04:15:08;;;;;;;19.25;10.73;;;;;;;20.95;88.49;101186.47;5020941;28;20071;-74
2022/08/26 04:17:33;;;;;;;15.55;9.15;;;;;;;20.95;88.07;101183.84;5021583;28;20029;-74
2022/08/26 04:20:06;;;;;;;14.70;9.27;;;;;;;20.92;88.43;101184.25;5019415;28;20099;-74
2022/08/26 04:22:32;;;;;;;17.63;8.85;;;;;;;20.98;88.33;101183.38;5018465;28;20053;-74
2022/08/26 04:24:58;;;;;;;18.55;10.32;;;;;;;21.00;88.16;101184.81;5023167;28;20026;-74
2022/08/26 04:27:24;;;;;;;17.15;9.30;;;;;;;21.00;87.95;101184.81;5040156;28;20060;-74
2022/08/26 04:29:50;;;;;;;13.90;9.85;;;;;;;21.07;87.53;101190.00;5020266;28;20556;-74
2022/08/26 04:32:16;;;;;;;21.75;9.40;;;;;;;21.06;87.13;101185.78;5020226;28;20128;-74
2022/08/26 04:34:41;;;;;;;14.05;8.20;;;;;;;21.09;87.56;101187.16;5016390;28;20044;-74
2022/08/26 04:37:07;;;;;;;17.17;9.18;;;;;;;20.98;87.46;101180.75;5021926;28;20079;-74
2022/08/26 04:39:33;;;;;;;18.95;8.63;;;;;;;20.98;87.74;101193.94;5019279;28;20063;-74
2022/08/26 04:41:59;;;;;;;16.17;8.65;;;;;;;20.99;87.72;101191.09;5022603;28;20029;-73
2022/08/26 04:44:27;;;;;;;16.08;8.05;;;;;;;20.99;87.89;101187.66;5037758;28;20526;-74
2022/08/26 04:46:53;;;;;;;15.50;8.10;;;;;;;21.02;87.75;101194.31;5037864;28;20037;-74
2022/08/26 04:49:19;;;;;;;14.30;8.05;;;;;;;21.04;86.99;101187.81;5034924;28;20498;-74
2022/08/26 04:51:46;;;;;;;16.75;9.13;;;;;;;20.99;87.46;101185.00;5018604;28;20067;-74
2022/08/26 04:54:12;;;;;;;13.65;7.75;;;;;;;20.95;88.19;101194.38;5019267;28;20037;-74
2022/08/26 04:56:41;;;;;;;13.75;8.00;;;;;;;20.95;88.00;101197.81;5032100;28;20551;-74
2022/08/26 04:59:11;;;;;;;13.88;6.88;;;;;;;20.99;87.81;101200.84;5016403;28;20045;-74
2022/08/26 05:01:37;;;;;;;15.57;7.45;;;;;;;21.02;87.72;101196.94;5021639;28;20029;-74
2022/08/26 05:04:04;;;;;;;13.88;7.68;;;;;;;21.10;86.89;101194.84;5019173;28;20076;-74
2022/08/26 05:06:30;;;;;;;16.42;7.53;;;;;;;21.04;87.01;101187.81;5018567;28;20083;-74
2022/08/26 05:08:56;;;;;;;17.83;8.38;;;;;;;21.03;87.38;101198.56;5040085;28;20055;-74
2022/08/26 05:11:21;;;;;;;12.05;6.78;;;;;;;21.03;87.44;101206.47;5019397;28;20073;-74
2022/08/26 05:13:47;;;;;;;14.60;5.57;;;;;;;20.98;87.66;101204.47;5034568;28;20147;-74
2022/08/26 05:16:15;;;;;;;13.15;6.43;;;;;;;21.00;87.38;101203.25;5016745;28;20033;-74
2022/08/26 05:18:43;;;;;;;16.27;6.15;;;;;;;21.05;87.30;101199.16;5037660;28;20098;-74
2022/08/26 05:21:19;;;;;;;16.10;6.28;;;;;;;21.05;87.36;101194.69;5023039;28;20172;-74
2022/08/26 05:23:46;;;;;;;15.80;6.53;;;;;;;21.07;87.29;101189.22;5035052;28;20449;-73
2022/08/26 05:26:12;;;;;;;12.50;6.05;;;;;;;21.09;86.55;101200.34;5017798;28;20205;-74
2022/08/26 05:28:37;;;;;;;15.40;6.75;;;;;;;21.07;86.32;101194.47;5022794;28;20068;-74
2022/08/26 05:31:17;;;;;;;14.25;6.22;;;;;;;21.08;86.54;101196.06;5038349;28;20037;-74
2022/08/26 05:33:44;;;;;;;11.55;6.20;;;;;;;21.10;86.48;101200.13;5033119;28;20040;-74
2022/08/26 05:36:14;;;;;;;11.98;5.40;;;;;;;21.05;86.55;101192.06;5038648;28;20099;-75
2022/08/26 05:38:40;;;;;;;13.05;5.82;;;;;;;21.11;86.19;101198.28;5022402;28;20029;-75
2022/08/26 05:41:18;;;;;;;10.30;5.60;;;;;;;21.11;85.98;101199.09;5019509;28;20040;-74
2022/08/26 05:43:44;;;;;;;11.38;6.25;;;;;;;21.13;86.03;101212.06;5000610;28;20044;-74
2022/08/26 05:46:10;;;;;;;10.70;5.40;;;;;;;21.24;85.65;101211.34;5018605;28;20029;-74
2022/08/26 05:48:36;;;;;;;14.05;5.63;;;;;;;21.24;85.40;101214.00;5018599;28;20487;-74
2022/08/26 05:51:07;;;;;;;13.38;5.88;;;;;;;21.16;85.74;101209.00;5022984;28;20572;-74
2022/08/26 05:53:33;;;;;;;19.33;5.68;;;;;;;21.11;86.34;101219.38;5035173;28;20033;-74
2022/08/26 05:55:59;;;;;;;15.60;6.43;;;;;;;21.32;85.36;101215.53;5033610;28;20029;-74
2022/08/26 05:58:26;;;;;;;15.02;5.80;;;;;;;21.24;85.14;101216.63;5015446;28;20053;-74
2022/08/26 06:00:59;;;;;;;12.50;5.13;;;;;;;21.19;85.54;101216.47;5018711;28;20037;-74
2022/08/26 06:03:24;;;;;;;12.57;6.18;;;;;;;21.30;84.59;101214.94;5019927;28;20072;-74
2022/08/26 06:05:50;;;;;;;15.60;7.50;;;;;;;21.31;84.62;101213.94;5000522;28;20505;-74
2022/08/26 06:08:17;;;;;;;10.68;5.15;;;;;;;21.17;85.32;101213.25;5018806;28;20044;-74
2022/08/26 06:10:47;;;;;;;12.50;5.68;;;;;;;21.15;85.62;101223.19;5001790;28;20639;-74
2022/08/26 06:13:13;;;;;;;13.65;5.90;;;;;;;21.12;85.48;101227.09;5037014;28;20518;-75
2022/08/26 06:15:41;;;;;;;12.68;5.63;;;;;;;21.03;86.29;101222.28;5021269;28;20554;-74
2022/08/26 06:18:06;;;;;;;8.60;4.60;;;;;;;21.12;85.68;101221.81;5020536;28;20030;-74
2022/08/26 06:20:32;;;;;;;10.77;4.43;;;;;;;21.15;85.46;101228.47;5019181;28;20037;-74
2022/08/26 06:25:43;;;;;;;11.95;4.20;;;;;;;21.15;85.87;101229.28;5037902;28;20044;-75
2022/08/26 06:28:08;;;;;;;12.23;3.95;;;;;;;21.10;86.03;101225.69;5037641;28;20041;-75
2022/08/26 06:30:39;;;;;;;10.85;4.43;;;;;;;21.29;85.39;101229.19;5033541;28;20021;-74
2022/08/26 06:33:05;;;;;;;12.50;4.68;;;;;;;21.17;85.31;101232.53;5016354;28;20061;-74
2022/08/26 06:35:35;;;;;;;16.98;4.72;;;;;;;21.07;85.92;101231.38;5035760;28;20034;-74
2022/08/26 06:38:01;;;;;;;7.38;4.28;;;;;;;21.08;85.77;101232.97;5022939;28;20033;-74
2022/08/26 06:40:26;;;;;;;10.68;3.80;;;;;;;21.12;86.06;101240.25;5019163;28;20388;-74
2022/08/26 06:42:52;;;;;;;13.10;4.65;;;;;;;21.19;85.62;101235.75;5015007;28;20033;-74
2022/08/26 06:45:17;;;;;;;20.17;5.38;;;;;;;21.11;85.80;101241.28;5018560;28;20106;-74
2022/08/26 06:47:43;;;;;;;14.48;6.38;;;;;;;21.15;85.49;101250.38;5020801;28;20525;-74
2022/08/26 06:50:11;;;;;;;13.10;6.60;;;;;;;21.08;85.87;101249.63;5018779;28;20075;-74
2022/08/26 06:52:40;;;;;;;6.10;3.45;;;;;;;21.09;85.38;101251.22;5033408;28;20089;-75
2022/08/26 06:55:06;;;;;;;10.23;3.90;;;;;;;21.08;85.70;101243.53;5030521;28;20633;-74
2022/08/26 06:57:31;;;;;;;10.93;4.50;;;;;;;21.12;85.64;101250.00;5001439;28;20136;-74
2022/08/26 06:59:57;;;;;;;11.90;4.15;;;;;;;21.14;85.39;101256.66;5023830;28;20029;-74
2022/08/26 07:02:22;;;;;;;10.32;4.57;;;;;;;21.12;85.38;101250.81;5019587;28;20041;-74
2022/08/26 07:04:51;;;;;;;7.55;3.70;;;;;;;21.19;85.08;101251.56;5019745;28;20082;-74
2022/08/26 07:07:16;;;;;;;11.68;4.43;;;;;;;21.17;85.54;101250.16;5024799;28;20040;-74
2022/08/26 07:09:42;;;;;;;10.10;4.57;;;;;;;21.23;84.95;101253.75;5021743;28;20391;-74
2022/08/26 07:12:08;;;;;;;8.45;4.07;;;;;;;21.15;85.49;101252.19;5023131;28;20195;-75
2022/08/26 07:14:33;;;;;;;11.88;4.25;;;;;;;21.21;85.50;101254.00;5020808;28;20045;-75
2022/08/26 07:17:00;;;;;;;14.55;4.55;;;;;;;21.32;85.17;101260.38;5020889;28;20095;-74
2022/08/26 07:19:26;;;;;;;10.35;3.50;;;;;;;21.42;84.72;101257.25;5019469;28;21178;-74
2022/08/26 07:21:51;;;;;;;6.72;3.85;;;;;;;21.30;85.15;101260.59;5038674;28;20044;-74
2022/08/26 07:24:17;;;;;;;9.23;3.42;;;;;;;21.30;84.80;101267.69;5023582;28;20037;-74
2022/08/26 07:26:45;;;;;;;6.28;2.75;;;;;;;21.24;85.07;101260.66;5039668;28;20029;-74
2022/08/26 07:29:11;;;;;;;11.25;3.75;;;;;;;21.24;85.17;101261.44;5023922;28;20072;-74
2022/08/26 07:31:37;;;;;;;11.00;3.50;;;;;;;21.31;84.83;101264.06;5026635;28;20053;-74
2022/08/26 07:34:03;;;;;;;6.95;3.60;;;;;;;21.25;85.27;101267.53;5007510;28;20035;-74
2022/08/26 07:36:29;;;;;;;10.25;3.38;;;;;;;21.29;85.37;101266.91;5021646;28;20472;-75
2022/08/26 07:38:55;;;;;;;6.65;3.50;;;;;;;21.34;85.17;101268.88;5023935;28;20121;-75
2022/08/26 07:41:23;;;;;;;6.22;3.00;;;;;;;21.44;84.11;101269.22;5019625;28;20049;-74
2022/08/26 07:43:50;;;;;;;11.15;3.92;;;;;;;21.41;82.89;101268.81;5021353;28;20052;-74
2022/08/26 07:46:18;;;;;;;6.50;4.10;;;;;;;21.40;82.97;101273.31;5020604;28;20095;-74
2022/08/26 07:48:46;;;;;;;16.90;4.60;;;;;;;21.42;82.75;101279.16;5024920;28;20017;-75
2022/08/26 07:51:14;;;;;;;10.35;3.30;;;;;;;21.35;82.81;101279.22;5023627;28;20454;-74
2022/08/26 07:53:41;;;;;;;9.77;3.60;;;;;;;21.45;82.29;101281.38;5025560;28;20025;-75
2022/08/26 07:56:06;;;;;;;13.85;4.80;;;;;;;21.39;82.53;101279.59;5021107;28;20101;-75
2022/08/26 07:58:32;;;;;;;9.02;4.30;;;;;;;21.40;83.22;101283.84;5039635;28;20064;-76
2022/08/26 08:00:57;;;;;;;7.97;3.25;;;;;;;21.42;82.75;101283.63;5038082;28;20029;-75
2022/08/26 08:03:26;;;;;;;13.38;4.35;;;;;;;21.41;82.42;101277.53;5005523;28;20083;-76
2022/08/26 08:05:52;;;;;;;13.57;4.00;;;;;;;21.45;82.36;101280.59;5023146;28;20128;-75
2022/08/26 08:08:18;;;;;;;8.77;4.82;;;;;;;21.55;81.75;101280.91;5021814;28;20128;-75
2022/08/26 08:10:44;;;;;;;7.65;3.00;;;;;;;21.50;82.44;101283.38;5021240;28;20036;-75
2022/08/26 08:13:10;;;;;;;9.98;3.42;;;;;;;21.53;82.31;101289.03;5023286;28;20045;-75
2022/08/26 08:15:36;;;;;;;14.48;3.80;;;;;;;21.49;81.49;101284.41;5018447;28;20065;-76
2022/08/26 08:18:02;;;;;;;10.63;3.40;;;;;;;21.56;81.58;101280.66;5022578;28;20116;-75
2022/08/26 08:20:29;;;;;;;8.10;2.95;;;;;;;21.54;80.70;101280.09;5003909;28;20025;-75
2022/08/26 08:22:55;;;;;;;7.63;2.40;;;;;;;21.61;79.79;101280.03;5039848;28;20034;-75
2022/08/26 08:25:22;;;;;;;7.25;2.67;;;;;;;21.62;80.34;101286.13;5024297;28;20052;-75
2022/08/26 08:27:50;;;;;;;6.10;2.72;;;;;;;21.76;78.27;101279.69;5022772;28;20265;-75
2022/08/26 08:30:20;;;;;;;6.82;2.17;;;;;;;21.86;77.33;101287.09;5037829;28;20033;-75
2022/08/26 08:32:45;;;;;;;10.07;2.38;;;;;;;22.09;76.70;101284.59;5022089;28;20041;-76
2022/08/26 08:35:15;;;;;;;5.75;2.45;;;;;;;22.17;75.20;101281.66;5041749;28;20033;-75
2022/08/26 08:37:40;;;;;;;10.52;2.90;;;;;;;22.21;75.11;101283.84;5020395;28;20044;-75
2022/08/26 08:40:08;;;;;;;8.75;2.10;;;;;;;22.27;74.68;101275.09;5021447;28;20038;-75
2022/08/26 08:42:46;;;;;;;6.28;2.22;;;;;;;22.38;74.76;101284.06;5020281;28;20040;-75
2022/08/26 08:45:19;;;;;;;9.30;2.10;;;;;;;22.43;75.50;101279.75;5039151;28;20041;-75
2022/08/26 08:47:51;;;;;;;8.73;2.22;;;;;;;22.48;75.97;101273.81;5022614;28;20065;-75
2022/08/26 08:50:22;;;;;;;11.73;2.53;;;;;;;22.48;77.15;101273.81;5025788;28;20065;-75
2022/08/26 08:53:01;;;;;;;8.95;2.95;;;;;;;22.51;76.83;101270.72;5035233;28;20042;-75
2022/08/26 08:55:35;;;;;;;7.90;2.20;;;;;;;22.71;76.71;101281.78;5019451;28;20497;-75
2022/08/26 08:58:06;;;;;;;15.70;3.63;;;;;;;22.74;76.31;101275.28;5017500;28;20183;-76
2022/08/26 09:00:43;;;;;;;7.30;2.10;;;;;;;22.66;76.16;101278.22;5021258;28;20039;-75
2022/08/26 09:03:20;;;;;;;14.75;2.80;;;;;;;22.79;75.46;101272.75;5017515;28;20029;-75
2022/08/26 09:05:50;;;;;;;11.95;2.22;;;;;;;22.74;75.30;101275.28;5036222;28;20098;-75
2022/08/26 09:08:23;;;;;;;7.50;2.40;;;;;;;22.67;76.02;101278.00;5035308;28;20045;-76
2022/08/26 09:10:56;;;;;;;7.68;2.47;;;;;;;22.69;76.07;101283.06;5036963;28;20040;-75
2022/08/26 09:13:22;;;;;;;6.55;2.42;;;;;;;22.68;75.06;101282.28;5021527;28;20041;-75
2022/08/26 09:16:05;;;;;;;9.18;2.67;;;;;;;22.67;75.46;101280.63;5018628;28;20092;-75
2022/08/26 09:18:49;;;;;;;8.02;1.83;;;;;;;22.74;75.52;101280.56;5018521;28;20044;-75
2022/08/26 09:21:16;;;;;;;8.95;2.95;;;;;;;22.97;75.80;101287.75;5035937;28;20033;-75
2022/08/26 09:23:42;;;;;;;6.18;2.10;;;;;;;23.06;75.18;101289.06;5035118;28;20037;-75
2022/08/26 09:26:21;;;;;;;10.10;1.98;;;;;;;22.88;74.75;101287.25;5032101;28;20454;-75
2022/08/26 09:28:59;;;;;;;11.07;2.30;;;;;;;22.97;74.67;101293.03;5016883;28;20052;-75
2022/08/26 09:31:31;;;;;;;10.07;2.58;;;;;;;22.96;74.91;101291.41;5018795;28;20052;-75
2022/08/26 09:34:15;;;;;;;11.48;2.33;;;;;;;22.86;74.49;101291.16;5051771;22;20059;-86
2022/08/26 09:36:58;;;;;;;9.93;2.13;;;;;;;22.94;75.17;101288.19;5021923;28;20639;-85
2022/08/26 09:39:24;;;;;;;4.53;1.80;;;;;;;22.84;75.25;101301.16;5026718;28;20116;-84
2022/08/26 09:42:12;;;;;;;3.72;1.88;;;;;;;22.91;74.93;101300.03;5030002;28;20029;-84
2022/08/26 09:45:02;;;;;;;7.13;1.80;;;;;;;22.91;75.08;101301.88;5045100;28;20086;-84
2022/08/26 09:47:30;;;;;;;5.85;2.13;;;;;;;22.96;74.68;101299.34;5044105;28;20032;-85
2022/08/26 09:50:00;;;;;;;9.50;2.05;;;;;;;22.92;74.78;101298.19;5029428;28;20490;-84
2022/08/26 09:52:26;;;;;;;7.50;2.05;;;;;;;23.02;75.12;101292.34;5043717;28;20087;-86
2022/08/26 09:55:08;;;;;;;5.88;1.77;;;;;;;23.17;74.45;101294.56;5042964;28;20386;-86
2022/08/26 09:57:42;;;;;;;7.93;2.20;;;;;;;23.15;73.64;101301.94;5046084;28;20402;-86
2022/08/26 10:00:22;;;;;;;7.22;2.10;;;;;;;23.20;73.35;101294.13;5028351;28;20995;-84
2022/08/26 10:02:48;;;;;;;10.18;1.75;;;;;;;23.20;73.43;101294.13;5045061;28;20044;-84
2022/08/26 10:05:17;;;;;;;7.47;1.85;;;;;;;23.13;73.40;101292.41;5044929;28;20123;-85
2022/08/26 10:07:48;;;;;;;9.88;1.80;;;;;;;23.09;74.11;101291.25;5046323;28;20112;-86
2022/08/26 10:10:31;;;;;;;6.75;2.05;;;;;;;23.27;73.22;101295.63;5041141;28;20094;-84
2022/08/26 10:13:02;;;;;;;8.73;1.90;;;;;;;23.13;73.32;101289.75;5032813;28;20044;-85
2022/08/26 10:15:34;;;;;;;6.35;1.98;;;;;;;23.11;74.13;101291.00;5068883;28;20056;-83
2022/08/26 10:18:06;;;;;;;8.77;2.10;;;;;;;23.19;73.93;101295.16;5028978;28;20486;-84
2022/08/26 10:20:36;;;;;;;7.20;2.00;;;;;;;23.12;74.03;101290.78;5028882;28;20552;-85
2022/08/26 10:23:08;;;;;;;6.07;1.60;;;;;;;23.13;74.20;101295.06;5027648;28;20075;-84
2022/08/26 10:25:56;;;;;;;13.48;6.50;;;;;;;23.07;74.09;101297.78;5020848;28;20033;-84
2022/08/26 10:28:25;;;;;;;8.35;2.20;;;;;;;23.04;74.66;101287.69;5043570;28;20048;-87
2022/08/26 10:31:05;;;;;;;8.52;2.10;;;;;;;23.04;74.37;101287.69;5048215;28;20087;-86
2022/08/26 10:33:31;;;;;;;8.85;1.67;;;;;;;23.01;74.89;101286.25;5043250;28;20677;-85
2022/08/26 10:36:00;;;;;;;5.55;2.00;;;;;;;23.12;74.79;101287.34;5035925;28;20059;-85
2022/08/26 10:38:36;;;;;;;9.98;2.17;;;;;;;23.05;74.37;101289.28;5032680;28;20599;-85
2022/08/26 10:41:13;;;;;;;13.38;1.90;;;;;;;23.05;74.29;101286.63;5036240;28;20116;-86
2022/08/26 10:43:43;;;;;;;49.50;2.55;;;;;;;23.02;74.08;101289.69;5022389;28;20044;-84
2022/08/26 10:46:15;;;;;;;7.95;2.10;;;;;;;23.10;73.71;101286.75;5035482;28;20391;-86
2022/08/26 10:48:52;;;;;;;8.35;2.30;;;;;;;23.15;72.94;101283.41;5040322;28;20032;-83
2022/08/26 10:51:25;;;;;;;7.63;1.70;;;;;;;23.21;72.78;101282.53;5028391;28;20044;-85
2022/08/26 10:54:08;;;;;;;7.13;1.90;;;;;;;23.12;72.13;101277.56;5042425;28;20025;-83
2022/08/26 10:56:44;;;;;;;3.60;1.90;;;;;;;23.20;72.09;101280.91;5043209;28;20561;-85
2022/08/26 10:59:16;;;;;;;12.20;1.70;;;;;;;23.26;72.60;101280.00;5023259;28;20483;-85
2022/08/26 11:01:56;;;;;;;6.00;2.38;;;;;;;23.36;73.13;101274.94;5063929;28;20044;-86
2022/08/26 11:04:49;;;;;;;16.67;2.85;;;;;;;23.24;72.86;101277.56;5026631;28;20303;-85
2022/08/26 11:07:35;;;;;;;14.05;2.60;;;;;;;23.18;73.53;101277.69;5025181;28;20041;-86
2022/08/26 11:10:41;;;;;;;11.30;2.97;;;;;;;23.03;73.66;101283.38;5024159;28;20415;-84
2022/08/26 11:13:07;;;;;;;8.57;1.98;;;;;;;23.08;73.99;101276.41;5024924;28;20040;-84
2022/08/26 11:15:39;;;;;;;8.27;2.33;;;;;;;23.00;73.77;101274.06;5042819;28;20029;-84
2022/08/26 11:18:07;;;;;;;7.05;1.80;;;;;;;23.00;74.35;101274.06;5024663;28;20033;-85
2022/08/26 11:20:39;;;;;;;8.68;1.90;;;;;;;23.11;73.69;101275.97;5027381;28;20510;-86
2022/08/26 11:23:11;;;;;;;9.00;2.10;;;;;;;22.98;73.94;101272.66;5029935;28;20024;-84
2022/08/26 11:26:08;;;;;;;8.05;1.63;;;;;;;23.06;74.33;101272.38;5036557;28;20482;-85
2022/08/26 11:28:52;;;;;;;9.48;2.05;;;;;;;23.20;74.05;101278.25;5057630;28;20029;-84